Terminal Aerodrome Forecast
Issued by NWS La Crosse, WI

Home | Current Version | Previous Version | Text Only | Print | Product List | Glossary On
Versions: 1 2 3 4 5 6 7 8 9 10 11 12 13 14 15 16 17 18 19 20 21 22 23 24 25 26 27 28 29 30 31 32 33 34 35 36 37 38
000
FTUS43 KARX 292140 AAB
TAFLSE
TAF AMD
KLSE 292140Z 2922/3018 30012G20KT P6SM VCTS SCT035CB BKN045
      TEMPO 2922/2923 29020G30KT 4SM SHRA BKN035
     FM300100 28009KT P6SM BKN080
     FM301400 27013KT P6SM SCT030 BKN045=

USA.gov is the U.S. government's official web portal to all federal, state and local government web resources and services.